Time;durP1;ratioP1;P1;durP2;ratioP2;P2;SDS_P1;SDS_P2;PMS_P1;PMS_P2;Temp;Humidity;BMP_temperature;BMP_pressure;BME280_temperature;BME280_humidity;BME280_pressure;Samples;Min_cycle;Max_cycle;Signal;HPM_P1;HPM_P2
2021/12/23 00:00:29;;;;;;;13.30;10.10;;;-2.00;99.90;-2.40;97313.00;;;;5036899;28;20435;-75
2021/12/23 00:03:18;;;;;;;14.07;9.73;;;-2.00;99.90;-2.60;97303.00;;;;5046895;28;20424;-75
2021/12/23 00:06:07;;;;;;;11.57;8.47;;;-2.00;99.90;-2.60;97299.00;;;;5045433;28;20971;-75
2021/12/23 00:09:00;;;;;;;12.27;9.20;;;-2.30;99.90;-2.50;97296.00;;;;5036987;28;20841;-73
2021/12/23 00:11:49;;;;;;;9.87;8.03;;;-2.00;99.90;-2.50;97279.00;;;;5043990;28;20857;-74
2021/12/23 00:14:38;;;;;;;13.60;9.00;;;-2.00;99.90;-2.60;97277.00;;;;5037693;28;20474;-75
2021/12/23 00:17:52;;;;;;;12.07;8.53;;;-2.00;99.90;-2.50;97279.00;;;;5027642;28;20424;-74
2021/12/23 00:23:44;;;;;;;10.73;8.20;;;-2.00;99.90;-2.50;97277.00;;;;5044965;28;20411;-74
2021/12/23 00:26:34;;;;;;;10.90;7.70;;;-2.10;99.90;-2.50;97272.00;;;;5045445;28;20429;-73
2021/12/23 00:29:23;;;;;;;12.00;8.87;;;-2.10;99.90;-2.60;97275.00;;;;5044415;28;20419;-74
2021/12/23 00:32:12;;;;;;;11.23;8.10;;;-2.10;99.90;-2.50;97282.00;;;;5046870;28;20447;-74
2021/12/23 00:35:01;;;;;;;10.27;9.07;;;-2.10;99.90;-2.50;97274.00;;;;5038568;28;20847;-73
2021/12/23 00:37:57;;;;;;;7.87;6.30;;;-2.10;99.90;-2.70;97259.00;;;;5039121;28;20423;-74
2021/12/23 00:40:46;;;;;;;10.80;8.27;;;-2.10;99.90;-2.80;97254.00;;;;5043111;28;20473;-75
2021/12/23 00:43:38;;;;;;;11.97;9.00;;;-2.10;99.90;-2.70;97257.00;;;;5043278;28;20427;-74
2021/12/23 00:46:27;;;;;;;9.43;8.50;;;-2.20;99.90;-2.80;97254.00;;;;5025154;28;21051;-74
2021/12/23 00:49:16;;;;;;;15.83;9.37;;;-2.20;99.90;-2.70;97254.00;;;;5029430;28;20435;-74
2021/12/23 00:52:08;;;;;;;16.17;9.53;;;-2.20;99.90;-2.80;97264.00;;;;5040838;28;20450;-75
2021/12/23 00:54:57;;;;;;;10.50;8.37;;;-2.20;99.90;-2.90;97237.00;;;;5044719;28;20474;-75
2021/12/23 00:57:46;;;;;;;12.03;8.23;;;-2.30;99.90;-3.00;97239.00;;;;5035860;28;20425;-73
2021/12/23 01:00:36;;;;;;;12.13;7.73;;;-2.30;99.90;-3.00;97259.00;;;;5035597;28;20422;-74
2021/12/23 01:03:25;;;;;;;9.70;7.90;;;-2.40;99.90;-3.10;97244.00;;;;5039064;28;20427;-75
2021/12/23 01:06:16;;;;;;;10.90;8.43;;;-2.40;99.90;-3.10;97241.00;;;;5043930;28;20439;-73
2021/12/23 01:09:28;;;;;;;11.50;7.33;;;-2.50;99.90;-3.20;97241.00;;;;5040624;28;20493;-73
2021/12/23 01:12:22;;;;;;;10.57;7.47;;;-2.50;99.90;-3.20;97231.00;;;;5043750;28;20447;-74
2021/12/23 01:15:16;;;;;;;12.00;8.17;;;-2.60;99.90;-3.30;97237.00;;;;5043885;28;20481;-75
2021/12/23 01:18:13;;;;;;;14.13;8.37;;;-2.70;99.90;-3.30;97227.00;;;;5040636;28;20469;-74
2021/12/23 01:21:15;;;;;;;14.27;9.30;;;-2.70;99.90;-3.40;97219.00;;;;5034110;28;20450;-73
2021/12/23 01:24:04;;;;;;;9.63;8.03;;;-2.70;99.90;-3.40;97221.00;;;;5046760;28;20429;-75
2021/12/23 01:26:53;;;;;;;10.73;7.87;;;-2.80;99.90;-3.50;97225.00;;;;5047604;28;20438;-74
2021/12/23 01:29:42;;;;;;;10.87;8.53;;;-2.80;99.90;-3.50;97227.00;;;;5042912;28;20434;-73
2021/12/23 01:32:31;;;;;;;10.77;8.53;;;-2.90;99.90;-3.60;97217.00;;;;5040827;28;20820;-73
2021/12/23 01:35:22;;;;;;;11.63;8.90;;;-2.90;99.90;-3.70;97223.00;;;;5047987;28;20482;-74
2021/12/23 01:38:12;;;;;;;11.63;8.70;;;-3.00;99.90;-3.70;97214.00;;;;5049102;28;20427;-74
2021/12/23 01:41:01;;;;;;;13.53;9.63;;;-3.00;99.90;-3.70;97197.00;;;;5044996;28;20459;-73
2021/12/23 01:43:50;;;;;;;10.33;8.17;;;-3.00;99.90;-3.70;97210.00;;;;5047110;28;20435;-74
2021/12/23 01:46:39;;;;;;;8.47;7.53;;;-3.10;99.90;-3.80;97208.00;;;;5046494;28;20419;-74
2021/12/23 01:49:28;;;;;;;15.07;9.03;;;-3.10;99.90;-3.80;97189.00;;;;5043394;28;20423;-74
2021/12/23 01:52:19;;;;;;;10.10;7.17;;;-3.20;99.90;-3.90;97191.00;;;;5045791;28;20449;-74
2021/12/23 01:55:11;;;;;;;11.70;9.43;;;-3.20;99.90;-4.00;97201.00;;;;5044832;28;20684;-74
2021/12/23 01:58:00;;;;;;;11.20;7.37;;;-3.20;99.90;-4.00;97194.00;;;;5039383;28;20420;-73
2021/12/23 02:00:51;;;;;;;9.53;7.87;;;-3.30;99.90;-4.10;97184.00;;;;5040759;28;20459;-74
2021/12/23 02:03:41;;;;;;;11.47;8.43;;;-3.40;99.90;-4.30;97161.00;;;;5045141;28;20423;-73
2021/12/23 02:06:30;;;;;;;10.37;8.37;;;-3.40;99.90;-4.40;97162.00;;;;5035242;28;20435;-74
2021/12/23 02:09:20;;;;;;;13.93;8.60;;;-3.50;99.90;-4.30;97166.00;;;;5047706;28;20493;-75
2021/12/23 02:12:11;;;;;;;15.30;8.40;;;-3.60;99.90;-4.30;97176.00;;;;5047890;28;20466;-74
2021/12/23 02:15:00;;;;;;;12.97;8.13;;;-3.60;99.90;-4.40;97164.00;;;;5035406;28;20469;-73
2021/12/23 02:17:50;;;;;;;14.77;9.43;;;-3.60;99.90;-4.50;97161.00;;;;5046426;28;20938;-74
2021/12/23 02:20:41;;;;;;;9.33;7.33;;;-3.70;99.90;-4.60;97159.00;;;;5046687;28;20451;-74
2021/12/23 02:23:30;;;;;;;8.93;7.03;;;-3.70;99.90;-4.90;97143.00;;;;5047348;28;20435;-74
2021/12/23 02:26:18;;;;;;;10.17;6.33;;;-3.80;99.90;-5.10;97152.00;;;;5037054;28;20462;-73
2021/12/23 02:29:07;;;;;;;10.03;8.03;;;-4.00;99.90;-5.10;97151.00;;;;5045589;28;20860;-73
2021/12/23 02:31:58;;;;;;;11.93;7.27;;;-4.00;99.90;-5.00;97135.00;;;;5047859;28;20444;-73
2021/12/23 02:34:47;;;;;;;11.10;7.77;;;-4.10;99.90;-5.00;97122.00;;;;5045825;28;20459;-73
2021/12/23 02:37:38;;;;;;;15.00;7.67;;;-4.20;99.90;-5.10;97126.00;;;;5034136;28;20419;-74
2021/12/23 02:40:31;;;;;;;13.70;7.87;;;-4.20;99.90;-5.20;97119.00;;;;5045156;28;21193;-73
2021/12/23 02:43:23;;;;;;;13.90;8.17;;;-4.20;99.90;-5.50;97120.00;;;;5044877;28;20427;-73
2021/12/23 02:46:13;;;;;;;9.20;7.53;;;-4.30;99.90;-5.50;97115.00;;;;5044769;28;20807;-73
2021/12/23 02:49:02;;;;;;;13.27;8.37;;;-4.40;99.90;-5.60;97112.00;;;;5045561;28;20420;-73
2021/12/23 02:51:52;;;;;;;10.13;8.40;;;-4.50;99.90;-5.50;97109.00;;;;5041934;28;20447;-72
2021/12/23 02:54:42;;;;;;;7.73;7.03;;;-4.60;99.90;-5.60;97102.00;;;;5046346;28;20475;-74
2021/12/23 02:57:33;;;;;;;11.30;7.37;;;-4.60;99.90;-6.00;97102.00;;;;5039775;28;20795;-75
2021/12/23 03:00:22;;;;;;;15.50;8.27;;;-4.80;99.90;-6.20;97089.00;;;;5039975;28;20412;-73
2021/12/23 03:03:11;;;;;;;10.30;7.33;;;-4.90;99.90;-6.10;97106.00;;;;5040522;28;20428;-74
2021/12/23 03:06:00;;;;;;;12.43;7.57;;;-5.00;99.90;-6.40;97094.00;;;;5045105;28;20793;-74
2021/12/23 03:08:51;;;;;;;6.80;6.13;;;-4.80;99.90;-6.40;97076.00;;;;5045919;28;20538;-73
2021/12/23 03:11:41;;;;;;;10.27;6.87;;;-5.20;99.90;-6.20;97096.00;;;;5045736;28;20715;-75
2021/12/23 03:14:31;;;;;;;15.25;8.82;;;-5.20;99.90;-6.00;97077.00;;;;5047066;28;20809;-74
2021/12/23 03:17:19;;;;;;;9.45;6.45;;;-5.20;99.90;-6.20;97085.00;;;;5042691;28;20212;-75
2021/12/23 03:20:11;;;;;;;11.50;8.10;;;-5.20;99.90;-6.00;97099.00;;;;5045906;28;20197;-74
2021/12/23 03:23:00;;;;;;;11.00;7.73;;;-5.20;99.90;-6.30;97091.00;;;;5034502;28;20434;-75
2021/12/23 03:25:49;;;;;;;14.77;9.57;;;-5.20;99.90;-6.20;97090.00;;;;5045727;28;20432;-75
2021/12/23 03:28:40;;;;;;;11.03;7.33;;;-5.20;99.90;-6.30;97078.00;;;;5043076;28;20281;-75
2021/12/23 03:31:29;;;;;;;19.13;8.40;;;-5.30;99.90;-6.20;97081.00;;;;5037235;28;20447;-75
2021/12/23 03:34:18;;;;;;;10.20;6.80;;;-5.40;99.90;-6.30;97071.00;;;;5037159;28;20436;-75
2021/12/23 03:37:07;;;;;;;10.30;7.57;;;-5.30;99.90;-6.50;97061.00;;;;5042541;28;20668;-74
2021/12/23 03:39:56;;;;;;;16.90;7.60;;;-5.40;99.90;-6.80;97067.00;;;;5044492;28;20427;-75
2021/12/23 03:42:44;;;;;;;15.63;9.60;;;-5.50;99.90;-6.40;97058.00;;;;5043630;28;20834;-75
2021/12/23 03:45:35;;;;;;;11.90;7.40;;;-5.50;99.90;-6.50;97053.00;;;;5042770;28;20432;-74
2021/12/23 03:48:24;;;;;;;14.23;9.52;;;-5.60;99.90;-6.70;97049.00;;;;5046098;28;20431;-75
2021/12/23 03:51:13;;;;;;;11.00;7.03;;;-5.60;99.90;-6.70;97051.00;;;;5043604;28;20239;-74
2021/12/23 03:54:04;;;;;;;10.63;6.95;;;-5.70;99.90;-6.80;97053.00;;;;5041485;28;21235;-74
2021/12/23 03:56:52;;;;;;;10.05;6.82;;;-5.70;99.90;-6.60;97056.00;;;;5047290;28;20230;-74
2021/12/23 03:59:41;;;;;;;13.98;8.25;;;-5.70;99.90;-6.50;97052.00;;;;5044781;28;20601;-74
2021/12/23 04:02:32;;;;;;;14.65;9.65;;;-5.70;99.90;-6.60;97042.00;;;;5034383;28;20232;-74
2021/12/23 04:05:22;;;;;;;14.30;8.35;;;-5.70;99.90;-6.60;97042.00;;;;5039032;28;20204;-74
2021/12/23 04:08:11;;;;;;;14.75;8.45;;;-5.70;99.90;-6.60;97044.00;;;;5033260;28;20205;-74
2021/12/23 04:11:01;;;;;;;10.93;6.67;;;-5.50;99.90;-6.60;97042.00;;;;5044392;28;20232;-74
2021/12/23 04:13:52;;;;;;;8.57;6.37;;;-5.70;99.90;-6.80;97032.00;;;;5043334;28;20812;-74
2021/12/23 04:16:41;;;;;;;7.07;6.35;;;-5.70;99.90;-6.90;97035.00;;;;5041657;28;20467;-73
2021/12/23 04:19:32;;;;;;;10.40;8.07;;;-5.80;99.90;-6.90;97036.00;;;;5034021;28;20285;-74
2021/12/23 04:22:21;;;;;;;8.63;6.72;;;-5.80;99.90;-6.90;97027.00;;;;5043651;28;20243;-74
2021/12/23 04:25:12;;;;;;;10.93;8.07;;;-5.80;99.90;-6.60;97026.00;;;;5044120;28;20303;-74
2021/12/23 04:28:02;;;;;;;17.77;9.03;;;-5.80;99.90;-6.50;97016.00;;;;5047579;28;20201;-74
2021/12/23 04:30:52;;;;;;;9.82;6.60;;;-5.80;99.90;-6.60;97003.00;;;;5044839;28;20458;-74
2021/12/23 04:33:41;;;;;;;9.87;7.13;;;-5.70;99.90;-6.90;96990.00;;;;5043403;28;20208;-73
2021/12/23 04:36:32;;;;;;;13.27;9.68;;;-5.70;99.90;-6.80;97001.00;;;;5040192;28;20462;-74
2021/12/23 04:39:21;;;;;;;12.60;8.73;;;-5.80;99.90;-6.50;97001.00;;;;5044125;28;20220;-74
2021/12/23 04:42:10;;;;;;;12.40;8.27;;;-5.80;99.90;-6.40;96998.00;;;;5043731;28;20521;-74
2021/12/23 04:44:59;;;;;;;14.73;9.03;;;-5.70;99.90;-6.40;96988.00;;;;5039991;28;20591;-74
2021/12/23 04:47:48;;;;;;;11.55;7.03;;;-5.70;99.90;-6.60;96991.00;;;;5041782;28;20522;-74
2021/12/23 04:50:36;;;;;;;13.18;8.80;;;-5.70;99.90;-6.70;96993.00;;;;5042712;28;20621;-74
2021/12/23 04:53:27;;;;;;;14.53;10.17;;;-5.70;99.90;-6.40;96997.00;;;;5047808;28;20204;-73
2021/12/23 04:56:18;;;;;;;18.80;9.70;;;-5.70;99.90;-6.40;96988.00;;;;5044389;28;20485;-74
2021/12/23 04:59:07;;;;;;;10.00;7.13;;;-5.70;99.90;-6.70;97000.00;;;;5040082;28;20800;-75
2021/12/23 05:01:56;;;;;;;10.98;8.05;;;-5.60;99.90;-6.90;96976.00;;;;5046795;28;20477;-74
2021/12/23 05:04:45;;;;;;;15.97;10.07;;;-5.70;99.90;-6.60;96983.00;;;;5045364;28;20208;-74
2021/12/23 05:07:34;;;;;;;9.07;7.47;;;-5.70;99.90;-6.50;96979.00;;;;5042095;28;20784;-74
2021/12/23 05:10:26;;;;;;;10.60;8.07;;;-5.70;99.90;-6.50;96992.00;;;;5036264;28;20427;-74
2021/12/23 05:13:16;;;;;;;14.23;9.40;;;-5.70;99.90;-6.40;96974.00;;;;5039327;28;20419;-74
2021/12/23 05:16:06;;;;;;;12.20;7.27;;;-5.70;99.90;-6.50;96946.00;;;;5046041;28;20498;-73
2021/12/23 05:18:55;;;;;;;14.27;7.73;;;-5.60;99.90;-6.50;96962.00;;;;5045467;28;20427;-75
2021/12/23 05:21:44;;;;;;;14.48;8.93;;;-5.60;99.90;-6.40;96956.00;;;;5032324;28;20482;-73
2021/12/23 05:24:33;;;;;;;10.30;8.27;;;-5.60;99.90;-6.60;96958.00;;;;5025035;28;20211;-73
2021/12/23 05:27:23;;;;;;;10.57;7.70;;;-5.60;99.90;-6.80;96950.00;;;;5031195;28;20423;-75
2021/12/23 05:30:17;;;;;;;10.18;7.13;;;-5.70;99.90;-6.70;96955.00;;;;5037551;28;20938;-75
2021/12/23 05:33:06;;;;;;;10.02;6.85;;;-5.70;99.90;-6.70;96971.00;;;;5035349;28;20190;-72
2021/12/23 05:35:55;;;;;;;11.27;7.63;;;-5.80;99.90;-6.80;96983.00;;;;5049655;28;20236;-72
2021/12/23 05:38:44;;;;;;;11.10;7.00;;;-5.80;99.90;-6.90;96982.00;;;;5053111;28;20435;-75
2021/12/23 05:41:33;;;;;;;11.88;6.45;;;-5.80;99.90;-6.80;96979.00;;;;5055263;28;20461;-76
2021/12/23 05:44:23;;;;;;;9.00;6.63;;;-5.80;99.90;-7.10;96961.00;;;;5042756;28;20204;-77
2021/12/23 05:47:12;;;;;;;11.82;8.10;;;-5.90;99.90;-7.00;96950.00;;;;5047593;28;20411;-75
2021/12/23 05:50:01;;;;;;;9.67;7.90;;;-5.90;99.90;-6.80;96934.00;;;;5048167;28;20202;-75
2021/12/23 05:52:50;;;;;;;11.15;8.52;;;-5.80;99.90;-6.70;96950.00;;;;5045817;28;20926;-76
2021/12/23 05:55:40;;;;;;;10.65;8.43;;;-5.90;99.90;-6.70;96952.00;;;;5050677;28;20307;-76
2021/12/23 05:58:31;;;;;;;7.53;6.65;;;-5.90;99.90;-7.10;96943.00;;;;5045994;28;20204;-75
2021/12/23 06:01:21;;;;;;;12.45;7.03;;;-5.90;99.90;-7.00;96931.00;;;;5047278;28;20235;-71
2021/12/23 06:04:10;;;;;;;8.03;6.77;;;-6.00;99.90;-6.80;96939.00;;;;5045025;28;20469;-76
2021/12/23 06:06:59;;;;;;;12.57;8.05;;;-5.90;99.90;-6.60;96936.00;;;;5042955;28;20733;-76
2021/12/23 06:09:51;;;;;;;11.68;7.38;;;-5.90;99.90;-6.60;96931.00;;;;5034206;28;20204;-74
2021/12/23 06:12:41;;;;;;;22.53;8.50;;;-5.90;99.90;-7.10;96946.00;;;;5024840;28;20703;-74
2021/12/23 06:15:30;;;;;;;12.32;8.20;;;-5.90;99.90;-7.10;96945.00;;;;5040999;28;20439;-73
2021/12/23 06:18:20;;;;;;;8.02;7.07;;;-6.00;99.90;-7.00;96944.00;;;;5040480;28;20217;-73
2021/12/23 06:21:09;;;;;;;16.48;8.90;;;-6.00;99.90;-6.90;96938.00;;;;5038775;28;20365;-72
2021/12/23 06:23:59;;;;;;;10.07;7.55;;;-6.00;99.90;-6.70;96943.00;;;;5045512;28;20664;-74
2021/12/23 06:26:48;;;;;;;9.55;8.45;;;-5.90;99.90;-6.70;96928.00;;;;5047066;28;20204;-74
2021/12/23 06:29:36;;;;;;;15.07;9.33;;;-5.90;99.90;-6.80;96938.00;;;;5042704;28;20208;-74
2021/12/23 06:32:25;;;;;;;10.23;7.10;;;-5.70;99.90;-6.90;96934.00;;;;5046905;28;20462;-74
2021/12/23 06:35:17;;;;;;;13.67;7.60;;;-5.80;99.90;-7.00;96930.00;;;;5044572;28;20709;-74
2021/12/23 06:38:08;;;;;;;13.63;8.77;;;-6.00;99.90;-7.10;96924.00;;;;5047328;28;20471;-74
2021/12/23 06:40:57;;;;;;;7.95;5.40;;;-5.60;99.90;-7.20;96929.00;;;;5044813;28;20228;-74
2021/12/23 06:43:47;;;;;;;9.68;6.80;;;-6.10;99.90;-7.00;96939.00;;;;5026593;28;20194;-74
2021/12/23 06:46:36;;;;;;;10.65;6.45;;;-6.10;99.90;-7.00;96937.00;;;;5026332;28;20217;-74
2021/12/23 06:49:26;;;;;;;9.70;6.50;;;-6.10;99.90;-6.80;96953.00;;;;5037786;28;20436;-74
2021/12/23 06:52:17;;;;;;;8.55;6.53;;;-6.00;99.90;-7.10;96942.00;;;;5028037;28;20229;-74
2021/12/23 06:55:08;;;;;;;9.73;7.60;;;-6.00;99.90;-7.10;96929.00;;;;5039686;28;20266;-74
2021/12/23 06:57:57;;;;;;;19.23;8.07;;;-6.00;99.90;-7.10;96939.00;;;;5047919;28;20607;-74
2021/12/23 07:00:47;;;;;;;10.10;8.35;;;-6.00;99.90;-7.10;96955.00;;;;5041940;28;20686;-74
2021/12/23 07:03:55;;;;;;;10.00;7.25;;;-5.90;99.90;-6.80;96951.00;;;;5041942;28;20208;-74
2021/12/23 07:06:56;;;;;;;16.08;8.43;;;-6.00;99.90;-6.70;96947.00;;;;5043431;28;20609;-74
2021/12/23 07:09:46;;;;;;;8.63;7.72;;;-6.00;99.90;-6.50;96940.00;;;;5038267;28;20204;-75
2021/12/23 07:12:35;;;;;;;10.77;7.03;;;-5.90;99.90;-6.60;96935.00;;;;5046539;28;20696;-75
2021/12/23 07:15:25;;;;;;;9.35;7.35;;;-5.80;99.90;-6.90;96931.00;;;;5041035;28;20877;-74
2021/12/23 07:18:14;;;;;;;1.15;1.15;;;-5.80;99.90;-7.30;96927.00;;;;5036864;28;20255;-75
2021/12/23 07:21:03;;;;;;;8.77;7.13;;;-5.90;99.90;-7.10;96920.00;;;;5044851;28;20957;-75
2021/12/23 07:23:52;;;;;;;4.78;4.40;;;-5.90;99.90;-6.90;96934.00;;;;5043277;28;20200;-74
2021/12/23 07:26:42;;;;;;;12.05;5.95;;;-5.80;99.90;-6.90;96927.00;;;;5046718;28;20216;-74
2021/12/23 07:29:32;;;;;;;8.32;6.15;;;-5.80;99.90;-6.70;96930.00;;;;5037814;28;20208;-74
2021/12/23 07:32:22;;;;;;;11.27;7.13;;;-5.80;99.90;-6.60;96916.00;;;;5045408;28;20221;-73
2021/12/23 07:35:12;;;;;;;7.97;6.27;;;-5.70;99.90;-6.60;96920.00;;;;5039508;28;20207;-73
2021/12/23 07:38:03;;;;;;;11.32;8.90;;;-5.70;99.90;-6.70;96924.00;;;;5044476;28;20993;-73
2021/12/23 07:40:52;;;;;;;9.27;7.60;;;-5.70;99.90;-6.30;96925.00;;;;5045254;28;20716;-73
2021/12/23 07:43:55;;;;;;;7.80;5.87;;;-5.60;99.90;-6.40;96907.00;;;;5043882;28;20436;-73
2021/12/23 07:46:44;;;;;;;19.63;12.30;;;-5.60;99.90;-6.60;96920.00;;;;5041233;28;20798;-75
2021/12/23 07:49:33;;;;;;;15.40;7.47;;;-5.60;99.90;-6.60;96909.00;;;;5039830;28;21176;-74
2021/12/23 07:52:22;;;;;;;16.47;9.83;;;-5.60;99.90;-6.20;96921.00;;;;5038040;28;20447;-73
2021/12/23 07:55:12;;;;;;;19.47;12.33;;;-5.50;99.90;-6.10;96916.00;;;;5035281;28;20433;-74
2021/12/23 07:58:01;;;;;;;9.87;6.07;;;-5.40;99.90;-6.50;96910.00;;;;5041682;28;20548;-74
2021/12/23 08:00:51;;;;;;;11.60;7.87;;;-4.10;99.90;-6.50;96903.00;;;;5043524;28;20439;-74
2021/12/23 08:03:40;;;;;;;11.63;8.23;;;-5.40;99.90;-6.50;96914.00;;;;5036714;28;20428;-73
2021/12/23 08:06:29;;;;;;;12.57;8.47;;;-5.50;99.90;-6.40;96897.00;;;;5041233;28;20204;-74
2021/12/23 08:09:18;;;;;;;15.30;10.40;;;-5.40;99.90;-6.40;96916.00;;;;5043279;28;20434;-73
2021/12/23 08:12:08;;;;;;;16.63;9.90;;;-5.40;99.90;-6.00;96921.00;;;;5040992;28;20439;-74
2021/12/23 08:14:57;;;;;;;12.27;8.53;;;-5.40;99.90;-6.30;96908.00;;;;5031560;28;20448;-73
2021/12/23 08:18:11;;;;;;;10.50;7.87;;;-5.30;99.90;-6.30;96918.00;;;;5042412;28;20471;-74
2021/12/23 08:21:09;;;;;;;8.27;6.20;;;-5.30;99.90;-6.30;96907.00;;;;5041457;28;20475;-74
2021/12/23 08:23:58;;;;;;;8.73;7.53;;;-5.30;99.90;-6.00;96899.00;;;;5035524;28;20420;-74
2021/12/23 08:26:53;;;;;;;7.63;5.97;;;-5.20;99.90;-5.80;96902.00;;;;5031316;28;20927;-74
2021/12/23 08:29:41;;;;;;;13.13;8.87;;;-5.10;99.90;-5.60;96897.00;;;;5035820;28;20432;-73
2021/12/23 08:32:30;;;;;;;13.23;10.20;;;-5.00;99.90;-5.20;96896.00;;;;5046211;28;20590;-74
2021/12/23 08:35:21;;;;;;;12.37;8.80;;;-4.80;99.90;-5.30;96897.00;;;;5043505;28;20497;-73
2021/12/23 08:38:10;;;;;;;11.57;7.93;;;-4.70;99.90;-5.40;96883.00;;;;5044137;28;20993;-74
2021/12/23 08:40:59;;;;;;;10.33;7.33;;;-4.60;99.90;-5.80;96891.00;;;;5040624;28;20462;-73
2021/12/23 08:43:48;;;;;;;11.70;9.00;;;-4.60;99.90;-5.60;96884.00;;;;5042978;28;20434;-74
2021/12/23 08:46:37;;;;;;;10.13;6.13;;;-4.60;99.90;-5.60;96892.00;;;;5035344;28;20429;-74
2021/12/23 08:49:26;;;;;;;11.07;8.40;;;-4.60;99.90;-5.30;96885.00;;;;5043301;28;20431;-74
2021/12/23 08:52:17;;;;;;;13.13;7.93;;;-4.50;99.90;-5.00;96883.00;;;;5043540;28;20448;-74
2021/12/23 08:55:08;;;;;;;13.57;9.17;;;-4.50;99.90;-5.10;96885.00;;;;5043064;28;20442;-74
2021/12/23 08:57:59;;;;;;;8.87;6.30;;;-4.40;99.90;-5.20;96882.00;;;;5043543;28;20456;-73
2021/12/23 09:00:48;;;;;;;15.23;11.13;;;-4.30;99.90;-5.00;96878.00;;;;5040926;28;20450;-74
2021/12/23 09:03:37;;;;;;;8.83;6.47;;;-4.20;99.90;-5.20;96878.00;;;;5038141;28;20457;-74
2021/12/23 09:06:26;;;;;;;6.77;5.30;;;-4.20;99.90;-5.00;96868.00;;;;5033630;28;20453;-74
2021/12/23 09:09:17;;;;;;;7.47;5.43;;;-4.20;99.90;-5.00;96868.00;;;;5038690;28;20427;-74
2021/12/23 09:12:08;;;;;;;8.07;6.37;;;-4.10;99.90;-4.70;96875.00;;;;5041450;28;20451;-74
2021/12/23 09:14:57;;;;;;;12.40;8.43;;;-4.00;99.90;-4.20;96869.00;;;;5036451;28;20428;-74
2021/12/23 09:17:47;;;;;;;8.87;6.73;;;-3.80;99.90;-4.40;96870.00;;;;5039511;28;20482;-74
2021/12/23 09:20:36;;;;;;;11.40;8.53;;;-3.70;99.90;-4.00;96864.00;;;;5036156;28;20478;-75
2021/12/23 09:23:26;;;;;;;13.03;7.93;;;-3.60;99.90;-3.90;96852.00;;;;5043466;28;20441;-75
2021/12/23 09:26:16;;;;;;;8.37;6.90;;;-3.40;99.90;-3.60;96856.00;;;;5043406;28;20424;-75
2021/12/23 09:29:11;;;;;;;10.23;7.93;;;-3.30;99.90;-3.60;96850.00;;;;5037457;28;20427;-75
2021/12/23 09:35:08;;;;;;;10.07;6.70;;;-3.00;99.90;-3.90;96837.00;;;;5038287;28;21009;-75
2021/12/23 09:37:57;;;;;;;9.33;6.10;;;-3.00;99.90;-3.70;96832.00;;;;5025032;28;20463;-75
2021/12/23 09:40:46;;;;;;;10.00;7.77;;;-2.90;99.90;-3.50;96825.00;;;;5040804;28;20470;-75
2021/12/23 09:43:39;;;;;;;10.27;7.30;;;-2.90;99.90;-3.20;96830.00;;;;5043020;28;20421;-76
2021/12/23 09:46:28;;;;;;;9.87;6.70;;;-2.80;99.90;-3.20;96827.00;;;;5036921;28;20438;-76
2021/12/23 09:49:17;;;;;;;9.27;7.80;;;-2.70;99.90;-3.20;96826.00;;;;5038475;28;20922;-74
2021/12/23 09:52:08;;;;;;;12.10;8.60;;;-2.60;99.90;-3.00;96831.00;;;;5043357;28;20825;-75
2021/12/23 09:54:59;;;;;;;13.63;9.37;;;-2.50;99.90;-2.60;96827.00;;;;5040128;28;20980;-76
2021/12/23 09:57:49;;;;;;;9.37;6.90;;;-2.40;99.90;-2.50;96816.00;;;;5045082;28;20431;-76
2021/12/23 10:00:45;;;;;;;11.57;8.30;;;-2.20;99.90;-2.50;96825.00;;;;5049611;28;20968;-77
2021/12/23 10:03:37;;;;;;;11.57;7.90;;;-2.10;99.90;-2.40;96814.00;;;;5044002;28;20459;-77
2021/12/23 10:06:26;;;;;;;11.57;7.93;;;-2.00;99.90;-2.10;96817.00;;;;5056510;28;20436;-77
2021/12/23 10:09:25;;;;;;;10.83;8.37;;;-1.90;99.90;-1.70;96810.00;;;;5048161;28;20423;-76
2021/12/23 10:31:32;;;;;;;14.00;8.23;;;-1.00;99.90;-1.00;96784.00;;;;5029331;28;20447;-70
2021/12/23 10:37:34;;;;;;;9.60;6.83;;;-0.80;99.90;-1.00;96771.00;;;;5044567;28;20473;-71
2021/12/23 10:40:23;;;;;;;29.70;17.47;;;-0.60;99.90;-0.70;96763.00;;;;5051354;28;20459;-71
2021/12/23 10:43:22;;;;;;;14.87;7.53;;;-0.60;99.90;-0.80;96765.00;;;;5048429;28;20520;-70
2021/12/23 10:46:15;;;;;;;15.17;8.00;;;-0.90;99.90;-0.80;96750.00;;;;5046753;28;20428;-71
2021/12/23 10:49:28;;;;;;;12.30;7.90;;;-0.40;99.90;-0.70;96730.00;;;;5034299;28;20439;-70
2021/12/23 10:52:25;;;;;;;12.37;7.37;;;-0.30;99.90;-0.60;96725.00;;;;5041523;28;20463;-71
2021/12/23 10:58:20;;;;;;;10.27;8.23;;;-0.20;99.90;-0.10;96749.00;;;;5040730;28;20611;-71
2021/12/23 11:01:09;;;;;;;10.50;7.67;;;0.00;99.90;-0.20;96728.00;;;;5044706;28;20999;-71
2021/12/23 11:04:02;;;;;;;10.77;7.73;;;0.10;99.90;0.20;96743.00;;;;5034489;28;20484;-72
2021/12/23 11:07:14;;;;;;;13.07;8.77;;;0.20;99.90;0.30;96740.00;;;;5044772;28;20464;-71
2021/12/23 11:10:16;;;;;;;13.13;8.37;;;0.40;99.90;0.50;96740.00;;;;5035086;28;20498;-71
2021/12/23 11:38:21;;;;;;;11.13;7.37;;;1.10;96.10;0.70;96685.00;;;;5038819;28;21007;-77
2021/12/23 11:41:30;;;;;;;11.03;7.40;;;1.10;95.70;0.50;96677.00;;;;5039299;28;20452;-77
2021/12/23 11:44:20;;;;;;;9.33;6.17;;;1.00;94.60;0.30;96686.00;;;;5040011;28;20830;-77
2021/12/23 11:47:12;;;;;;;9.70;7.20;;;1.00;94.70;0.30;96684.00;;;;5043840;28;20428;-76
2021/12/23 11:50:01;;;;;;;22.67;7.50;;;0.90;94.60;0.00;96677.00;;;;5040335;28;20438;-76
2021/12/23 11:52:50;;;;;;;9.13;5.70;;;0.80;94.10;-0.10;96676.00;;;;5044851;28;20431;-76
2021/12/23 11:55:43;;;;;;;7.30;6.07;;;0.70;93.90;0.00;96673.00;;;;5043843;28;20427;-75
2021/12/23 11:58:34;;;;;;;11.33;7.80;;;0.60;94.10;-0.20;96658.00;;;;5029161;28;20430;-76
2021/12/23 12:01:26;;;;;;;9.70;6.87;;;0.50;93.70;0.00;96655.00;;;;5040430;28;20474;-76
2021/12/23 12:04:24;;;;;;;9.30;6.33;;;0.40;93.90;0.30;96660.00;;;;5038333;28;20464;-75
2021/12/23 12:07:16;;;;;;;7.90;6.47;;;0.50;94.10;0.30;96649.00;;;;5045095;28;20442;-72
2021/12/23 12:10:09;;;;;;;10.73;6.10;;;0.50;94.20;0.30;96645.00;;;;5038781;28;20420;-76
2021/12/23 12:13:02;;;;;;;9.57;5.40;;;0.60;93.80;0.20;96629.00;;;;5030664;28;20423;-74
2021/12/23 12:15:53;;;;;;;9.50;6.07;;;0.70;93.80;0.10;96615.00;;;;5040985;28;20809;-75
2021/12/23 12:18:46;;;;;;;12.33;7.27;;;0.70;93.50;0.10;96613.00;;;;5041561;28;20457;-75
2021/12/23 12:21:37;;;;;;;9.13;7.07;;;0.70;93.70;0.10;96613.00;;;;5040110;28;20458;-72
2021/12/23 12:24:25;;;;;;;9.23;7.00;;;0.70;93.10;0.30;96602.00;;;;5045269;28;20442;-75
2021/12/23 12:27:15;;;;;;;9.90;7.40;;;0.70;93.30;0.70;96612.00;;;;5043844;28;20427;-76
2021/12/23 12:30:10;;;;;;;11.40;6.03;;;0.90;93.20;0.90;96607.00;;;;5041345;28;20930;-73
2021/12/23 12:33:03;;;;;;;9.20;6.20;;;1.10;92.90;0.90;96596.00;;;;5042621;28;20852;-73
2021/12/23 12:36:05;;;;;;;12.70;7.43;;;1.20;92.50;0.70;96590.00;;;;5037096;28;20430;-74
2021/12/23 12:39:15;;;;;;;8.87;5.67;;;1.20;92.40;0.80;96585.00;;;;5043330;28;20830;-76
2021/12/23 12:42:09;;;;;;;12.47;6.87;;;1.30;91.90;1.00;96591.00;;;;5039562;28;20455;-74
2021/12/23 12:45:10;;;;;;;7.67;6.37;;;1.30;92.00;1.20;96594.00;;;;5039675;28;20423;-75
2021/12/23 12:48:01;;;;;;;10.03;7.47;;;1.30;92.10;0.90;96600.00;;;;5033840;28;20961;-76
2021/12/23 12:50:53;;;;;;;10.77;6.53;;;1.70;91.80;0.60;96576.00;;;;5038524;28;20455;-77
2021/12/23 12:53:55;;;;;;;9.73;7.20;;;1.30;91.30;0.40;96582.00;;;;5040963;28;20431;-83
2021/12/23 12:56:48;;;;;;;6.60;5.57;;;1.20;91.20;0.10;96570.00;;;;5044502;28;20421;-76
2021/12/23 12:59:39;;;;;;;8.50;6.17;;;1.00;91.10;0.20;96572.00;;;;5034648;28;20471;-76
2021/12/23 13:02:31;;;;;;;8.17;5.83;;;0.90;91.40;0.20;96574.00;;;;5041806;28;20450;-78
2021/12/23 13:05:34;;;;;;;7.20;6.47;;;0.80;91.40;0.60;96578.00;;;;5042896;28;20458;-77
2021/12/23 13:08:28;;;;;;;9.70;6.63;;;0.70;91.70;0.70;96562.00;;;;5031852;28;20465;-79
2021/12/23 13:11:22;;;;;;;11.27;7.13;;;0.80;91.70;0.70;96558.00;;;;5035168;28;20448;-74
2021/12/23 13:14:14;;;;;;;9.93;6.30;;;0.80;91.70;0.40;96570.00;;;;5042774;28;20957;-75
2021/12/23 13:17:03;;;;;;;9.53;7.07;;;0.80;91.60;0.30;96558.00;;;;5040969;28;20434;-74
2021/12/23 13:19:52;;;;;;;10.27;6.23;;;0.80;91.80;0.20;96571.00;;;;5043942;28;20461;-74
2021/12/23 13:22:56;;;;;;;10.33;6.57;;;0.70;91.80;0.10;96569.00;;;;5045536;28;20418;-75
2021/12/23 13:25:53;;;;;;;9.13;6.50;;;0.70;91.90;0.30;96569.00;;;;5046838;28;20797;-75
2021/12/23 13:28:45;;;;;;;9.80;6.13;;;0.60;91.80;0.30;96576.00;;;;5048368;28;20423;-75
2021/12/23 13:31:39;;;;;;;8.77;5.80;;;0.60;92.00;0.30;96559.00;;;;5035168;28;20444;-75
2021/12/23 13:34:31;;;;;;;8.87;6.27;;;0.60;92.10;0.50;96562.00;;;;5043630;28;20449;-74